Time;durP1;ratioP1;P1;durP2;ratioP2;P2;SDS_P1;SDS_P2;PMS_P1;PMS_P2;Temp;Humidity;BMP_temperature;BMP_pressure;BME280_temperature;BME280_humidity;BME280_pressure;Samples;Min_cycle;Max_cycle;Signal;HPM_P1;HPM_P2
2022/04/28 00:01:07;;;;;;;16.33;6.03;;;8.20;86.00;;;;;;5054623;28;20044;-59
2022/04/28 00:03:35;;;;;;;12.77;5.25;;;8.10;86.00;;;;;;5055382;28;20049;-59
2022/04/28 00:06:03;;;;;;;10.98;5.30;;;8.20;86.20;;;;;;5052655;28;20045;-59
2022/04/28 00:08:31;;;;;;;15.18;5.22;;;8.10;86.20;;;;;;5071294;28;20036;-59
2022/04/28 00:10:59;;;;;;;12.43;5.05;;;8.10;86.30;;;;;;5056158;28;20041;-59
2022/04/28 00:13:28;;;;;;;11.52;4.95;;;8.10;86.50;;;;;;5051467;28;20893;-59
2022/04/28 00:15:55;;;;;;;10.43;5.18;;;8.10;86.70;;;;;;5057616;28;20511;-60
2022/04/28 00:18:23;;;;;;;10.98;5.53;;;8.10;86.70;;;;;;5054855;28;20408;-59
2022/04/28 00:20:51;;;;;;;12.98;5.68;;;8.10;86.90;;;;;;5062387;28;20040;-60
2022/04/28 00:23:19;;;;;;;18.27;5.60;;;8.10;86.80;;;;;;5071204;28;20404;-59
2022/04/28 00:25:46;;;;;;;15.85;5.90;;;8.00;87.10;;;;;;5058180;28;20041;-59
2022/04/28 00:28:16;;;;;;;12.57;7.10;;;8.00;87.30;;;;;;5055330;28;20067;-59
2022/04/28 00:30:44;;;;;;;7.95;5.43;;;8.00;87.30;;;;;;5071190;28;20044;-59
2022/04/28 00:33:13;;;;;;;13.32;6.57;;;7.90;87.40;;;;;;5069493;28;20044;-60
2022/04/28 00:35:41;;;;;;;10.07;6.55;;;7.90;87.60;;;;;;5063227;28;20052;-60
2022/04/28 00:38:08;;;;;;;12.20;6.35;;;7.90;87.70;;;;;;5055089;28;20044;-59
2022/04/28 00:40:36;;;;;;;10.68;6.20;;;7.90;87.80;;;;;;5065717;28;20041;-60
2022/04/28 00:43:18;;;;;;;9.77;6.13;;;7.80;87.70;;;;;;5049819;28;20045;-60
2022/04/28 00:45:47;;;;;;;10.80;6.13;;;7.80;87.80;;;;;;5050689;28;20049;-60
2022/04/28 00:51:04;;;;;;;10.07;6.50;;;7.70;88.20;;;;;;5069417;28;20427;-61
2022/04/28 00:53:43;;;;;;;12.88;6.80;;;7.70;88.50;;;;;;5068906;28;20085;-60
2022/04/28 00:56:12;;;;;;;17.55;7.15;;;7.70;88.70;;;;;;5058333;28;20064;-61
2022/04/28 00:58:40;;;;;;;15.50;6.60;;;7.70;88.90;;;;;;5058502;28;20059;-60
2022/04/28 01:01:08;;;;;;;14.77;6.85;;;7.70;89.10;;;;;;5052445;28;20312;-60
2022/04/28 01:03:36;;;;;;;14.77;7.32;;;7.70;89.10;;;;;;5058278;28;20049;-60
2022/04/28 01:06:03;;;;;;;11.40;7.20;;;7.70;89.70;;;;;;5049596;28;20045;-61
2022/04/28 01:08:31;;;;;;;15.35;7.70;;;7.70;89.90;;;;;;5065050;28;20473;-60
2022/04/28 01:10:59;;;;;;;16.58;6.38;;;7.70;89.70;;;;;;5061338;28;20047;-60
2022/04/28 01:13:28;;;;;;;15.60;7.90;;;7.70;89.90;;;;;;5068874;28;20045;-60
2022/04/28 01:16:13;;;;;;;15.27;7.35;;;7.70;89.90;;;;;;5054059;28;20052;-60
2022/04/28 01:18:42;;;;;;;16.75;7.35;;;7.70;90.10;;;;;;5056846;28;20041;-60
2022/04/28 01:21:10;;;;;;;18.95;7.35;;;7.70;90.20;;;;;;5032832;28;20056;-60
2022/04/28 01:23:38;;;;;;;15.23;7.20;;;7.70;90.40;;;;;;5061755;28;20061;-62
2022/04/28 01:26:07;;;;;;;11.15;7.10;;;7.70;90.50;;;;;;5068195;28;20052;-61
2022/04/28 01:28:35;;;;;;;15.73;7.35;;;7.70;90.60;;;;;;5053689;28;20041;-63
2022/04/28 01:31:06;;;;;;;17.65;7.70;;;7.60;90.70;;;;;;5048963;28;20037;-62
2022/04/28 01:33:48;;;;;;;17.17;7.03;;;7.70;90.80;;;;;;5056961;28;20041;-62
2022/04/28 01:36:19;;;;;;;15.15;7.03;;;7.60;90.80;;;;;;5049116;28;20547;-60
2022/04/28 01:38:48;;;;;;;16.43;7.93;;;7.70;91.00;;;;;;5047929;28;20392;-60
2022/04/28 01:41:16;;;;;;;14.77;6.07;;;7.70;91.10;;;;;;5050012;28;20051;-59
2022/04/28 01:43:45;;;;;;;15.27;6.22;;;7.70;91.10;;;;;;5050246;28;20045;-60
2022/04/28 01:46:14;;;;;;;14.45;6.20;;;7.70;91.10;;;;;;5061525;28;20040;-60
2022/04/28 01:48:59;;;;;;;13.30;5.47;;;7.70;91.20;;;;;;5062093;28;20224;-60
2022/04/28 01:57:27;;;;;;;10.68;5.50;;;7.60;91.10;;;;;;5050135;28;20418;-58
2022/04/28 02:00:09;;;;;;;20.35;7.00;;;7.60;91.20;;;;;;5050249;28;20049;-60
2022/04/28 02:02:50;;;;;;;9.93;4.60;;;7.60;91.30;;;;;;5062647;28;20048;-59
2022/04/28 02:05:18;;;;;;;11.85;5.32;;;7.60;91.40;;;;;;5058263;28;20045;-59
2022/04/28 02:07:47;;;;;;;13.00;5.70;;;7.60;91.70;;;;;;5049991;28;20067;-58
2022/04/28 02:10:14;;;;;;;15.93;6.63;;;7.60;91.60;;;;;;5051273;28;20041;-58
2022/04/28 02:12:42;;;;;;;12.40;5.82;;;7.60;91.60;;;;;;5049691;28;20049;-59
2022/04/28 02:15:37;;;;;;;12.52;5.55;;;7.60;91.70;;;;;;5049443;28;20045;-60
2022/04/28 02:18:34;;;;;;;13.70;5.97;;;7.60;91.70;;;;;;5046728;28;20065;-60
2022/04/28 02:21:02;;;;;;;13.15;7.00;;;7.60;91.80;;;;;;5059166;28;20436;-59
2022/04/28 02:23:29;;;;;;;13.75;6.50;;;7.60;91.80;;;;;;5064565;28;20051;-60
2022/04/28 02:25:58;;;;;;;12.98;6.30;;;7.60;91.90;;;;;;5068435;28;20480;-59
2022/04/28 02:28:26;;;;;;;14.05;6.90;;;7.70;92.10;;;;;;5051073;28;20053;-59
2022/04/28 02:30:53;;;;;;;11.65;5.47;;;7.60;92.30;;;;;;5055823;28;20037;-58
2022/04/28 02:33:22;;;;;;;15.07;4.72;;;7.60;92.20;;;;;;5063735;28;20390;-59
2022/04/28 02:36:07;;;;;;;12.52;4.78;;;7.60;92.20;;;;;;5049810;28;20542;-59
2022/04/28 02:38:36;;;;;;;11.63;3.87;;;7.60;92.20;;;;;;5051128;28;20041;-59
2022/04/28 02:41:08;;;;;;;10.10;3.65;;;7.50;92.10;;;;;;5050023;28;20123;-60
2022/04/28 02:43:36;;;;;;;9.10;3.80;;;7.50;92.20;;;;;;5053655;28;20041;-60
2022/04/28 02:46:14;;;;;;;8.90;3.75;;;7.50;92.30;;;;;;5051487;28;20037;-59
2022/04/28 02:49:00;;;;;;;9.30;3.15;;;7.50;92.40;;;;;;5050863;28;20044;-60
2022/04/28 02:51:33;;;;;;;8.20;2.90;;;7.50;92.60;;;;;;5050961;28;20045;-59
2022/04/28 02:54:02;;;;;;;9.35;3.40;;;7.50;92.60;;;;;;5053305;28;20485;-60
2022/04/28 02:56:32;;;;;;;13.77;3.22;;;7.50;92.60;;;;;;5061088;28;20044;-59
2022/04/28 02:59:00;;;;;;;6.93;3.10;;;7.50;92.90;;;;;;5062716;28;20045;-60
2022/04/28 03:01:30;;;;;;;14.48;3.28;;;7.40;92.80;;;;;;5056527;28;20040;-60
2022/04/28 03:03:58;;;;;;;13.13;3.60;;;7.40;92.80;;;;;;5063503;28;20044;-59
2022/04/28 03:11:58;;;;;;;6.22;2.75;;;7.50;93.10;;;;;;5056609;28;20049;-60
2022/04/28 03:14:25;;;;;;;8.90;3.10;;;7.50;93.20;;;;;;5053806;28;20037;-61
2022/04/28 03:16:53;;;;;;;8.57;3.15;;;7.60;93.10;;;;;;5063522;28;20037;-61
2022/04/28 03:19:21;;;;;;;11.68;3.28;;;7.60;93.20;;;;;;5066225;28;20055;-59
2022/04/28 03:21:48;;;;;;;8.05;2.60;;;7.60;93.60;;;;;;5055493;28;20033;-60
2022/04/28 03:24:16;;;;;;;8.95;2.75;;;7.60;93.40;;;;;;5064855;28;20037;-62
2022/04/28 03:26:44;;;;;;;9.10;2.83;;;7.60;93.50;;;;;;5052683;28;20392;-62
2022/04/28 03:29:14;;;;;;;8.35;2.60;;;7.60;93.50;;;;;;5043877;28;20041;-61
2022/04/28 03:31:43;;;;;;;5.30;2.50;;;7.60;93.50;;;;;;5067493;28;20053;-64
2022/04/28 03:34:37;;;;;;;8.45;2.80;;;7.60;93.60;;;;;;5058162;28;20068;-60
2022/04/28 03:37:05;;;;;;;7.47;2.60;;;7.60;93.60;;;;;;5035432;28;20400;-60
2022/04/28 03:39:37;;;;;;;13.85;3.10;;;7.60;93.70;;;;;;5056069;28;20511;-61
2022/04/28 03:42:06;;;;;;;7.72;2.67;;;7.60;93.80;;;;;;5058673;28;20391;-62
2022/04/28 03:44:35;;;;;;;6.75;2.78;;;7.60;93.80;;;;;;5055147;28;20059;-60
2022/04/28 03:47:03;;;;;;;8.63;2.83;;;7.60;93.90;;;;;;5066508;28;20491;-62
2022/04/28 03:49:32;;;;;;;6.00;2.53;;;7.60;94.10;;;;;;5054256;28;20526;-62
2022/04/28 03:52:00;;;;;;;11.23;3.35;;;7.60;93.90;;;;;;5057030;28;20045;-62
2022/04/28 03:54:29;;;;;;;7.13;2.53;;;7.60;93.90;;;;;;5072307;28;20064;-63
2022/04/28 03:56:57;;;;;;;10.20;2.40;;;7.60;94.10;;;;;;5072137;28;20036;-62
2022/04/28 03:59:26;;;;;;;6.45;2.67;;;7.60;94.10;;;;;;5072186;28;20052;-63
2022/04/28 04:02:18;;;;;;;8.35;2.42;;;7.60;94.10;;;;;;5071475;28;20048;-62
2022/04/28 04:04:46;;;;;;;9.40;2.72;;;7.60;94.00;;;;;;5061718;28;20404;-63
2022/04/28 04:07:14;;;;;;;5.85;2.55;;;7.50;94.10;;;;;;5053079;28;20041;-63
2022/04/28 04:09:54;;;;;;;11.90;2.85;;;7.50;94.20;;;;;;5053232;28;20041;-61
2022/04/28 04:12:34;;;;;;;4.60;2.10;;;7.60;94.30;;;;;;5051701;28;20049;-59
2022/04/28 04:15:11;;;;;;;8.43;2.30;;;7.50;94.30;;;;;;5052959;28;20045;-59
2022/04/28 04:17:53;;;;;;;9.13;3.10;;;7.50;94.30;;;;;;5053708;28;20048;-60
2022/04/28 04:20:25;;;;;;;12.13;2.80;;;7.60;94.40;;;;;;5051764;28;20044;-59
2022/04/28 04:22:53;;;;;;;8.23;2.30;;;7.50;94.40;;;;;;5051788;28;20056;-59
2022/04/28 04:25:21;;;;;;;7.15;2.70;;;7.60;94.50;;;;;;5051721;28;20071;-60
2022/04/28 04:27:53;;;;;;;8.00;2.25;;;7.60;94.50;;;;;;5051469;28;20112;-60
2022/04/28 04:33:32;;;;;;;10.18;2.72;;;7.60;94.60;;;;;;5051355;28;20055;-60
2022/04/28 04:35:59;;;;;;;10.82;2.70;;;7.60;94.60;;;;;;5052074;28;20057;-59
2022/04/28 04:38:27;;;;;;;7.75;2.30;;;7.50;94.70;;;;;;5051416;28;20425;-61
2022/04/28 04:40:55;;;;;;;6.53;2.40;;;7.60;94.80;;;;;;5057937;28;20049;-60
2022/04/28 04:43:23;;;;;;;5.72;1.95;;;7.50;94.70;;;;;;5071480;28;20396;-59
2022/04/28 04:45:50;;;;;;;4.65;1.90;;;7.60;94.70;;;;;;5071074;28;20064;-59
2022/04/28 04:48:32;;;;;;;8.93;3.22;;;7.60;95.10;;;;;;5054450;28;20045;-60
2022/04/28 04:51:02;;;;;;;9.33;2.30;;;7.60;94.80;;;;;;5044166;28;20044;-59
2022/04/28 04:53:39;;;;;;;4.03;1.88;;;7.50;94.90;;;;;;5056648;28;20067;-60
2022/04/28 04:56:10;;;;;;;24.20;4.15;;;7.60;95.00;;;;;;5060619;28;20068;-60
2022/04/28 04:58:38;;;;;;;4.22;1.90;;;7.50;95.00;;;;;;5051350;28;20049;-59
2022/04/28 05:01:06;;;;;;;6.82;2.80;;;7.50;95.10;;;;;;5057397;28;20041;-59
2022/04/28 05:03:35;;;;;;;10.02;2.88;;;7.60;95.20;;;;;;5053262;28;20051;-60
2022/04/28 05:06:21;;;;;;;8.73;2.53;;;7.60;95.20;;;;;;5051905;28;20044;-60
2022/04/28 05:09:21;;;;;;;4.68;2.30;;;7.60;95.30;;;;;;5054558;28;20059;-59
2022/04/28 05:11:49;;;;;;;7.30;2.35;;;7.60;95.30;;;;;;5069215;28;20044;-60
2022/04/28 05:14:31;;;;;;;14.35;3.58;;;7.60;95.40;;;;;;5051795;28;20060;-60
2022/04/28 05:16:59;;;;;;;8.13;3.10;;;7.60;95.50;;;;;;5068665;28;20048;-60
2022/04/28 05:19:45;;;;;;;5.75;2.28;;;7.60;95.70;;;;;;5064079;28;20040;-60
2022/04/28 05:22:33;;;;;;;8.18;2.25;;;7.70;95.80;;;;;;5050203;28;20041;-59
2022/04/28 05:25:36;;;;;;;9.75;2.60;;;7.70;95.90;;;;;;5047986;28;20052;-60
2022/04/28 05:28:27;;;;;;;8.77;2.70;;;7.70;96.00;;;;;;5057554;28;20048;-59
2022/04/28 05:31:18;;;;;;;7.88;2.42;;;7.70;96.00;;;;;;5059399;28;20068;-60
2022/04/28 05:34:04;;;;;;;5.82;2.75;;;7.70;96.00;;;;;;5047167;28;20552;-60
2022/04/28 05:36:39;;;;;;;11.45;3.30;;;7.70;96.20;;;;;;5047972;28;20068;-61
2022/04/28 05:39:07;;;;;;;7.28;2.75;;;7.80;96.30;;;;;;5065475;28;20049;-60
2022/04/28 05:41:35;;;;;;;9.55;2.53;;;7.80;96.40;;;;;;5060992;28;20048;-60
2022/04/28 05:46:52;;;;;;;12.57;2.58;;;7.80;96.40;;;;;;5069910;28;20053;-59
2022/04/28 05:49:20;;;;;;;;;;;7.80;96.30;;;;;;5068859;28;20052;-59
2022/04/28 05:51:48;;;;;;;10.27;2.40;;;7.80;96.30;;;;;;5054573;28;19924;-64
2022/04/28 05:54:19;;;;;;;5.55;2.72;;;7.80;96.30;;;;;;5048578;28;20086;-64
2022/04/28 05:56:46;;;;;;;9.95;2.25;;;7.80;96.40;;;;;;5047005;28;20049;-62
2022/04/28 05:59:16;;;;;;;9.97;3.03;;;7.90;96.40;;;;;;5063192;28;20051;-61
2022/04/28 06:01:44;;;;;;;9.70;2.78;;;7.90;96.40;;;;;;5046744;28;20060;-64
2022/04/28 06:04:15;;;;;;;8.68;2.60;;;7.90;96.50;;;;;;5044962;28;20049;-60
2022/04/28 06:06:47;;;;;;;10.80;2.80;;;7.90;96.40;;;;;;5056710;28;20041;-65
2022/04/28 06:09:32;;;;;;;7.00;3.05;;;7.90;96.50;;;;;;5048139;28;20052;-64
2022/04/28 06:12:01;;;;;;;8.68;3.25;;;7.90;96.50;;;;;;5049402;28;20045;-64
2022/04/28 06:14:38;;;;;;;5.63;3.20;;;7.90;96.60;;;;;;5031817;28;20497;-63
2022/04/28 06:17:36;;;;;;;10.70;2.92;;;8.00;96.70;;;;;;5052684;28;20436;-63
2022/04/28 06:20:07;;;;;;;10.43;2.97;;;8.00;96.80;;;;;;5058781;28;20493;-63
2022/04/28 06:23:02;;;;;;;7.97;2.67;;;8.00;96.70;;;;;;5064012;28;20052;-63
2022/04/28 06:25:36;;;;;;;13.23;2.78;;;8.10;96.90;;;;;;5062104;28;20049;-63
2022/04/28 06:28:05;;;;;;;7.10;2.63;;;8.10;96.80;;;;;;5059369;28;20384;-64
2022/04/28 06:30:36;;;;;;;6.47;2.70;;;8.10;96.70;;;;;;5058316;28;20049;-64
2022/04/28 06:33:40;;;;;;;9.07;3.10;;;8.10;96.70;;;;;;5049836;28;20547;-64
2022/04/28 06:36:31;;;;;;;10.07;3.05;;;8.10;96.80;;;;;;5063607;28;20053;-63
2022/04/28 06:39:02;;;;;;;11.98;3.10;;;8.20;96.90;;;;;;5072095;28;20044;-64
2022/04/28 06:41:30;;;;;;;8.77;2.97;;;8.20;97.00;;;;;;5060300;28;20047;-63
2022/04/28 06:44:03;;;;;;;7.18;2.75;;;8.20;97.20;;;;;;5053018;28;20048;-62
2022/04/28 06:47:00;;;;;;;11.10;3.15;;;8.30;97.20;;;;;;5046957;28;20072;-60
2022/04/28 06:49:48;;;;;;;5.25;2.53;;;8.40;97.10;;;;;;5057915;28;20531;-65
2022/04/28 06:52:45;;;;;;;7.15;3.10;;;8.40;97.00;;;;;;5047622;28;20516;-65
2022/04/28 06:55:24;;;;;;;7.28;3.03;;;8.40;97.00;;;;;;5065210;28;20041;-65
2022/04/28 06:57:53;;;;;;;9.53;3.30;;;8.50;96.90;;;;;;5056096;28;20044;-65
2022/04/28 07:00:27;;;;;;;5.50;2.75;;;8.50;96.80;;;;;;5068494;28;20289;-65
2022/04/28 07:02:55;;;;;;;11.18;3.72;;;8.50;96.80;;;;;;5053154;28;20044;-65
2022/04/28 07:05:28;;;;;;;8.18;2.75;;;8.50;96.80;;;;;;5050145;28;20407;-60
2022/04/28 07:07:59;;;;;;;5.00;2.90;;;8.50;96.90;;;;;;5069948;28;20111;-59
2022/04/28 07:10:34;;;;;;;4.38;2.90;;;8.60;96.80;;;;;;5070275;28;20056;-59
2022/04/28 07:13:02;;;;;;;8.23;2.72;;;8.60;96.80;;;;;;5060575;28;20044;-60
2022/04/28 07:15:48;;;;;;;11.85;3.58;;;8.60;96.80;;;;;;5053309;28;20060;-60
2022/04/28 07:18:54;;;;;;;11.75;3.10;;;8.70;97.00;;;;;;5015058;28;20057;-59
2022/04/28 07:21:23;;;;;;;7.82;2.85;;;8.70;97.10;;;;;;5000222;28;20520;-60
2022/04/28 07:23:50;;;;;;;16.40;3.08;;;8.80;96.80;;;;;;5019748;28;20064;-59
2022/04/28 07:26:18;;;;;;;9.32;3.38;;;8.70;96.70;;;;;;5051148;28;20041;-60
2022/04/28 07:28:47;;;;;;;10.00;3.33;;;8.80;96.80;;;;;;5051572;28;20041;-61
2022/04/28 07:31:37;;;;;;;10.57;3.55;;;8.70;96.70;;;;;;5051580;28;20053;-59
2022/04/28 07:34:11;;;;;;;5.05;3.30;;;8.80;97.10;;;;;;5052255;28;20045;-60
2022/04/28 07:36:57;;;;;;;7.40;3.38;;;8.90;97.00;;;;;;5051842;28;20044;-59
2022/04/28 07:39:28;;;;;;;7.82;3.45;;;8.90;97.00;;;;;;5070476;28;20040;-60
2022/04/28 07:42:18;;;;;;;5.55;2.72;;;9.00;96.90;;;;;;5070875;28;20055;-60
2022/04/28 07:44:49;;;;;;;7.60;3.03;;;9.10;96.80;;;;;;5065614;28;20063;-60
2022/04/28 07:47:18;;;;;;;9.98;3.40;;;9.10;96.80;;;;;;5034582;28;20056;-60
2022/04/28 07:50:11;;;;;;;6.47;3.03;;;9.20;96.70;;;;;;5068944;28;20052;-60
2022/04/28 07:52:39;;;;;;;6.45;2.58;;;9.20;96.60;;;;;;5061295;28;20064;-59
2022/04/28 07:55:10;;;;;;;14.02;3.25;;;9.20;96.40;;;;;;5050429;28;20069;-59
2022/04/28 07:57:41;;;;;;;13.30;3.20;;;9.20;96.30;;;;;;5053713;28;20396;-59
2022/04/28 08:00:13;;;;;;;11.35;4.82;;;9.30;96.20;;;;;;5050237;28;20381;-59
2022/04/28 08:02:48;;;;;;;11.63;3.10;;;9.20;95.90;;;;;;5050069;28;20063;-59
2022/04/28 08:05:20;;;;;;;8.10;2.95;;;9.20;96.00;;;;;;5050422;28;20048;-60
2022/04/28 08:07:48;;;;;;;6.13;2.80;;;9.20;95.80;;;;;;5068347;28;20044;-59
2022/04/28 08:10:16;;;;;;;8.43;2.72;;;9.20;95.80;;;;;;5070435;28;20419;-59
2022/04/28 08:12:44;;;;;;;8.88;3.03;;;9.20;95.80;;;;;;5064859;28;20037;-59
2022/04/28 08:15:33;;;;;;;7.90;3.17;;;9.20;95.80;;;;;;5051428;28;20045;-60
2022/04/28 08:18:02;;;;;;;15.15;3.58;;;9.20;95.80;;;;;;5056868;28;20048;-59
2022/04/28 08:20:30;;;;;;;5.85;3.10;;;9.20;95.60;;;;;;5070126;28;20396;-60
2022/04/28 08:22:58;;;;;;;8.07;2.85;;;9.20;95.70;;;;;;5057955;28;20044;-63
2022/04/28 08:25:26;;;;;;;8.60;3.35;;;9.20;95.80;;;;;;5058573;28;20048;-63
2022/04/28 08:27:55;;;;;;;6.45;2.70;;;9.30;95.70;;;;;;5055984;28;20515;-62
2022/04/28 08:30:23;;;;;;;9.82;3.03;;;9.30;95.70;;;;;;5068763;28;20087;-60
2022/04/28 08:32:51;;;;;;;6.32;3.13;;;9.30;95.80;;;;;;5057407;28;20636;-61
2022/04/28 08:35:19;;;;;;;7.35;3.30;;;9.30;95.70;;;;;;5047332;28;20048;-61
2022/04/28 08:37:46;;;;;;;8.38;3.17;;;9.30;95.60;;;;;;5057008;28;20040;-62
2022/04/28 08:40:14;;;;;;;15.50;3.70;;;9.30;95.40;;;;;;5050487;28;20048;-63
2022/04/28 08:42:42;;;;;;;8.05;3.50;;;9.20;95.60;;;;;;5055077;28;20049;-61
2022/04/28 08:45:37;;;;;;;8.73;3.53;;;9.20;95.70;;;;;;5052734;28;20045;-60
2022/04/28 08:48:31;;;;;;;9.15;3.28;;;9.30;95.80;;;;;;5062804;28;20055;-64
2022/04/28 08:51:16;;;;;;;11.38;3.78;;;9.30;96.10;;;;;;5064284;28;20488;-62
2022/04/28 08:53:47;;;;;;;7.63;3.07;;;9.50;96.10;;;;;;5049484;28;20416;-62
2022/04/28 08:56:19;;;;;;;8.20;3.33;;;9.60;95.90;;;;;;5049471;28;20412;-63
2022/04/28 08:58:47;;;;;;;9.77;3.20;;;9.70;95.70;;;;;;5059139;28;20037;-60
2022/04/28 09:01:24;;;;;;;8.77;3.13;;;9.70;95.40;;;;;;5050061;28;20397;-58
2022/04/28 09:04:11;;;;;;;9.07;2.95;;;9.80;95.40;;;;;;5049972;28;20048;-59
2022/04/28 09:06:58;;;;;;;11.57;3.25;;;9.90;95.10;;;;;;5050350;28;20049;-60
2022/04/28 09:09:58;;;;;;;7.97;3.05;;;10.00;95.10;;;;;;5050433;28;20489;-61
2022/04/28 09:16:13;;;;;;;5.38;2.90;;;10.20;95.00;;;;;;5055955;28;20059;-60
2022/04/28 09:18:41;;;;;;;7.38;3.13;;;10.30;94.70;;;;;;5061237;28;20045;-60
2022/04/28 09:21:10;;;;;;;9.35;4.15;;;10.40;94.90;;;;;;5057427;28;20147;-60
2022/04/28 09:23:40;;;;;;;8.30;2.58;;;10.50;94.50;;;;;;5066376;28;20048;-59
2022/04/28 09:26:08;;;;;;;8.57;2.60;;;10.60;94.20;;;;;;5064134;28;20040;-58
2022/04/28 09:28:38;;;;;;;8.88;3.00;;;10.70;93.70;;;;;;5064087;28;20068;-59
2022/04/28 09:31:09;;;;;;;11.27;3.22;;;10.70;93.70;;;;;;5058800;28;20044;-59
2022/04/28 09:33:50;;;;;;;7.07;2.85;;;10.70;93.60;;;;;;5045205;28;20045;-58
2022/04/28 09:36:17;;;;;;;5.72;2.75;;;10.80;93.20;;;;;;5049909;28;20063;-59
2022/04/28 09:38:54;;;;;;;6.57;2.97;;;10.70;93.20;;;;;;5064091;28;20510;-58
2022/04/28 09:44:16;;;;;;;8.95;3.40;;;10.70;92.90;;;;;;5050691;28;20045;-59
2022/04/28 09:46:52;;;;;;;9.60;3.33;;;10.70;92.90;;;;;;5054926;28;20044;-58
2022/04/28 09:49:23;;;;;;;9.45;3.17;;;10.60;93.00;;;;;;5062305;28;20041;-59
2022/04/28 09:52:11;;;;;;;9.38;3.45;;;10.60;93.10;;;;;;5046412;28;20052;-58
2022/04/28 09:54:59;;;;;;;7.70;4.20;;;10.60;93.30;;;;;;5055936;28;20056;-59
2022/04/28 09:57:32;;;;;;;15.15;3.60;;;10.60;93.20;;;;;;5065634;28;20060;-59
2022/04/28 10:00:01;;;;;;;6.97;3.03;;;10.70;93.20;;;;;;5048576;28;20396;-58
2022/04/28 10:02:34;;;;;;;10.57;4.07;;;10.80;93.20;;;;;;5050691;28;20472;-58
2022/04/28 10:05:05;;;;;;;9.27;3.60;;;10.90;93.10;;;;;;5069674;28;20044;-59
2022/04/28 10:07:53;;;;;;;8.98;4.05;;;11.00;93.30;;;;;;5074034;28;20048;-58
2022/04/28 10:10:21;;;;;;;8.07;3.40;;;11.00;92.90;;;;;;5062342;28;20051;-59
2022/04/28 10:12:50;;;;;;;11.02;4.07;;;11.10;92.60;;;;;;5060368;28;20043;-58
2022/04/28 10:15:28;;;;;;;10.02;3.20;;;11.10;92.50;;;;;;5063892;28;20329;-58
2022/04/28 10:18:04;;;;;;;9.68;3.10;;;11.10;92.50;;;;;;5058828;28;20098;-58
2022/04/28 10:20:36;;;;;;;7.53;3.40;;;11.10;92.70;;;;;;5058747;28;20618;-59
2022/04/28 10:32:24;;;;;;;18.25;3.55;;;11.10;91.90;;;;;;5054227;28;20080;-58
2022/04/28 10:35:04;;;;;;;7.78;2.75;;;11.20;91.90;;;;;;5055961;28;20056;-61
2022/04/28 10:37:41;;;;;;;7.68;3.63;;;11.20;91.80;;;;;;5057517;28;20417;-59
2022/04/28 10:40:20;;;;;;;12.75;3.83;;;11.30;92.10;;;;;;5053748;28;20214;-58
2022/04/28 10:42:48;;;;;;;11.27;4.22;;;11.30;91.90;;;;;;5061339;28;20049;-59
2022/04/28 10:45:28;;;;;;;9.98;3.13;;;11.40;91.70;;;;;;5069946;28;20041;-59
2022/04/28 10:48:24;;;;;;;10.93;3.10;;;11.40;91.60;;;;;;5058533;28;20055;-61
2022/04/28 10:51:23;;;;;;;11.07;3.75;;;11.50;92.10;;;;;;5055106;28;20041;-58
2022/04/28 10:54:12;;;;;;;20.38;4.10;;;11.60;91.60;;;;;;5063149;28;20503;-59
2022/04/28 10:56:39;;;;;;;11.55;4.15;;;11.70;91.60;;;;;;5056708;28;20060;-59
2022/04/28 10:59:26;;;;;;;11.60;4.18;;;11.70;91.60;;;;;;5061413;28;20049;-58
2022/04/28 11:01:55;;;;;;;8.02;3.78;;;11.80;91.40;;;;;;5055248;28;20280;-58
2022/04/28 11:04:24;;;;;;;7.90;3.42;;;11.80;91.30;;;;;;5051034;28;20044;-58
2022/04/28 11:06:57;;;;;;;11.90;4.38;;;11.90;91.30;;;;;;5057902;28;20063;-58
2022/04/28 11:09:42;;;;;;;14.50;4.95;;;11.90;91.20;;;;;;5065728;28;20041;-60
2022/04/28 11:12:16;;;;;;;8.18;4.93;;;11.90;91.20;;;;;;5060533;28;20048;-61
2022/04/28 11:14:47;;;;;;;11.38;4.20;;;11.90;91.40;;;;;;5054984;28;20064;-58
2022/04/28 11:17:17;;;;;;;13.68;4.47;;;11.90;91.70;;;;;;5052337;28;20041;-59
2022/04/28 11:19:46;;;;;;;8.30;4.35;;;12.00;91.70;;;;;;5072542;28;20045;-58
2022/04/28 11:22:14;;;;;;;13.52;5.03;;;12.00;91.50;;;;;;5072357;28;20496;-57
2022/04/28 11:24:42;;;;;;;14.80;4.10;;;12.00;91.30;;;;;;5071125;28;20049;-59
2022/04/28 11:27:21;;;;;;;11.35;4.35;;;12.00;91.30;;;;;;5071094;28;20036;-59
2022/04/28 11:29:58;;;;;;;9.18;4.78;;;11.90;91.20;;;;;;5066803;28;20488;-61
2022/04/28 11:32:26;;;;;;;11.52;4.70;;;11.90;91.50;;;;;;5051831;28;20053;-61
2022/04/28 11:34:56;;;;;;;10.88;3.95;;;11.90;91.50;;;;;;5052118;28;20044;-60
2022/04/28 11:37:26;;;;;;;;;;;11.90;91.50;;;;;;5053565;28;20049;-62
2022/04/28 11:39:56;;;;;;;16.45;4.55;;;11.90;91.60;;;;;;5072190;28;19924;-58
2022/04/28 11:42:45;;;;;;;12.93;4.05;;;11.90;91.40;;;;;;5072247;28;20055;-61
2022/04/28 11:45:15;;;;;;;8.05;4.07;;;11.90;91.30;;;;;;5066080;28;20049;-62
2022/04/28 11:47:45;;;;;;;7.90;4.05;;;11.90;91.30;;;;;;5052393;28;20043;-58
2022/04/28 11:50:22;;;;;;;8.70;3.60;;;12.00;91.30;;;;;;5068742;28;20052;-58
2022/04/28 11:52:59;;;;;;;9.38;4.28;;;12.00;91.30;;;;;;5053996;28;20391;-59
2022/04/28 11:55:30;;;;;;;9.40;3.67;;;12.00;91.30;;;;;;5071822;28;20052;-59
2022/04/28 11:57:58;;;;;;;7.40;3.70;;;12.10;91.40;;;;;;5052939;28;20500;-58
2022/04/28 12:00:26;;;;;;;12.10;4.75;;;12.00;91.20;;;;;;5062616;28;20044;-60
2022/04/28 12:02:55;;;;;;;9.77;3.80;;;12.00;90.90;;;;;;5051719;28;20053;-59
2022/04/28 12:05:25;;;;;;;10.65;3.63;;;12.00;91.00;;;;;;5051557;28;20041;-58
2022/04/28 12:07:53;;;;;;;9.68;4.25;;;11.90;91.00;;;;;;5060878;28;20391;-58
2022/04/28 12:16:02;;;;;;;13.77;4.70;;;11.40;91.10;;;;;;5051366;28;20033;-58
2022/04/28 12:21:38;;;;;;;11.75;4.00;;;11.10;91.90;;;;;;5070486;28;20048;-58
2022/04/28 12:24:15;;;;;;;10.10;3.88;;;11.00;92.20;;;;;;5068414;28;20056;-58
2022/04/28 12:26:44;;;;;;;13.65;4.18;;;10.90;92.50;;;;;;5051181;28;20477;-58
2022/04/28 12:29:17;;;;;;;8.63;3.65;;;10.90;92.50;;;;;;5065606;28;20044;-59
2022/04/28 12:31:45;;;;;;;12.40;3.30;;;10.90;92.60;;;;;;5070831;28;20064;-59
2022/04/28 12:34:20;;;;;;;11.02;4.28;;;10.90;92.60;;;;;;5069832;28;20052;-58
2022/04/28 12:36:57;;;;;;;7.72;3.28;;;10.90;92.70;;;;;;5069486;28;20400;-59
2022/04/28 12:39:31;;;;;;;6.57;3.72;;;10.80;92.40;;;;;;5067247;28;20044;-60
2022/04/28 12:42:09;;;;;;;12.20;3.45;;;10.80;92.20;;;;;;5060310;28;20404;-60
2022/04/28 12:44:44;;;;;;;10.48;3.83;;;10.70;92.40;;;;;;5054832;28;20060;-59
2022/04/28 12:47:12;;;;;;;9.32;4.15;;;10.60;92.40;;;;;;5059854;28;20048;-60
2022/04/28 12:49:48;;;;;;;14.75;4.35;;;10.70;92.40;;;;;;5068754;28;20045;-61
2022/04/28 12:52:30;;;;;;;8.15;3.58;;;10.70;92.50;;;;;;5069379;28;20051;-58
2022/04/28 12:55:05;;;;;;;13.52;4.05;;;10.70;92.70;;;;;;5070594;28;20051;-58
2022/04/28 12:57:33;;;;;;;12.25;4.38;;;10.80;92.90;;;;;;5064947;28;20045;-58
2022/04/28 13:00:09;;;;;;;7.72;4.35;;;10.80;92.80;;;;;;5056015;28;20049;-58
2022/04/28 13:02:38;;;;;;;13.27;4.93;;;10.90;92.70;;;;;;5049782;28;20072;-59
2022/04/28 13:05:17;;;;;;;9.30;4.82;;;11.00;92.70;;;;;;5048897;28;20057;-58
2022/04/28 13:08:04;;;;;;;9.55;4.07;;;11.10;92.60;;;;;;5055800;28;20052;-58
2022/04/28 13:10:33;;;;;;;13.48;5.95;;;11.20;92.30;;;;;;5063496;28;20044;-58
2022/04/28 13:13:01;;;;;;;16.23;6.18;;;11.30;92.20;;;;;;5053867;28;20048;-58
2022/04/28 13:15:29;;;;;;;19.90;7.15;;;11.30;92.10;;;;;;5057017;28;20037;-58
2022/04/28 13:17:56;;;;;;;8.82;3.80;;;11.30;91.90;;;;;;5053147;28;20052;-58
2022/04/28 13:20:24;;;;;;;19.38;7.88;;;11.30;92.00;;;;;;5049620;28;20045;-58
2022/04/28 13:22:52;;;;;;;17.33;7.13;;;11.20;92.10;;;;;;5056266;28;20508;-58
2022/04/28 13:25:20;;;;;;;22.73;9.85;;;11.20;92.20;;;;;;5049724;28;20048;-59
2022/04/28 13:27:48;;;;;;;19.13;6.30;;;11.20;92.10;;;;;;5054465;28;20044;-61
2022/04/28 13:30:16;;;;;;;11.45;4.90;;;11.20;91.50;;;;;;5052644;28;20056;-59
2022/04/28 13:32:43;;;;;;;7.90;3.72;;;11.20;91.20;;;;;;5049490;28;20054;-60
2022/04/28 13:35:12;;;;;;;13.10;4.80;;;11.20;90.90;;;;;;5058986;28;20056;-59
2022/04/28 13:37:39;;;;;;;6.10;3.22;;;11.20;91.10;;;;;;5063460;28;20053;-58
2022/04/28 13:40:08;;;;;;;8.35;3.17;;;11.20;91.20;;;;;;5059241;28;20507;-58
2022/04/28 13:42:36;;;;;;;6.30;3.13;;;11.20;91.30;;;;;;5046823;28;20480;-59
2022/04/28 13:45:04;;;;;;;6.00;3.47;;;11.30;90.50;;;;;;5066994;28;20296;-60
2022/04/28 13:47:32;;;;;;;11.55;3.75;;;11.30;90.70;;;;;;5065532;28;20056;-58
2022/04/28 13:50:00;;;;;;;9.65;4.10;;;11.30;90.60;;;;;;5066076;28;20047;-58
2022/04/28 13:52:27;;;;;;;11.32;3.90;;;11.40;90.50;;;;;;5066466;28;20052;-58
2022/04/28 13:54:55;;;;;;;10.18;5.07;;;11.40;90.40;;;;;;5067911;28;20033;-58
2022/04/28 13:57:23;;;;;;;12.90;3.85;;;11.40;90.20;;;;;;5052745;28;20045;-58
2022/04/28 13:59:50;;;;;;;12.27;4.18;;;11.40;90.40;;;;;;5063099;28;20505;-63
2022/04/28 14:02:18;;;;;;;12.02;4.38;;;11.30;90.60;;;;;;5058374;28;20052;-61
2022/04/28 14:04:46;;;;;;;13.63;5.07;;;11.30;90.80;;;;;;5053622;28;20045;-64